Terminal Aerodrome Forecast
Issued by NWS Greer, SC

Current Version | Previous Version | Text Only | Print | Product List | Glossary On
Versions: 1 2 3 4 5 6 7 8 9 10 11 12 13 14 15 16 17 18 19 20 21 22 23 24 25 26 27 28 29 30 31 32 33 34 35 36 37 38 39
713
FTUS42 KGSP 261450 AAA
TAFCLT
TAF AMD
KCLT 261450Z 2615/2712 16010KT P6SM BKN060 BKN240
     FM261600 19009G17KT P6SM VCSH BKN045
     FM261900 17010G20KT P6SM VCSH BKN050
     FM270100 18006KT P6SM BKN025=

USA.gov is the U.S. government's official web portal to all federal, state and local government web resources and services.